KLOT/LOT METAR and TAF weather

Enter ICAO airport designator
Station Type Date Time Source
KLOT METAR 2019/08/19 01:35 UTC NOAA

KLOT 190135Z AUTO 28004KT 10SM CLR 23/21 A2989 RMK AO2 T02310205


Station Type Date Time Source
KLOT Decoded METAR 2019/08/19 01:35 UTC NOAA

Station name not available
Aug 18, 2019 - 09:35 PM EDT / 2019.08.19 0135 UTC
Wind: from the W (280 degrees) at 5 MPH (4 KT):0
Visibility: 10 mile(s):0
Sky conditions: clear
Temperature: 73.6 F (23.1 C)
Dew Point: 68.9 F (20.5 C)
Relative Humidity: 85%
Pressure (altimeter): 29.89 in. Hg (1012 hPa)
ob: KLOT 190135Z AUTO 28004KT 10SM CLR 23/21 A2989 RMK AO2 T02310205
cycle: 1

Station Type Date Time Source
KLOT TAF UTC NOAA

Error!

Example: see airport list